createdAt,value
2019-02-18T00:02:12.171Z,5.89
2019-02-18T00:04:40.810Z,5.88
2019-02-18T00:07:14.180Z,5.75
2019-02-18T00:09:35.766Z,5.61
2019-02-18T00:12:02.569Z,5.49
2019-02-18T00:14:29.097Z,5.41
2019-02-18T00:16:55.848Z,5.38
2019-02-18T00:19:22.347Z,5.31
2019-02-18T00:21:48.842Z,5.29
2019-02-18T00:24:15.644Z,5.23
2019-02-18T00:26:42.195Z,5.23
2019-02-18T00:29:08.953Z,5.13
2019-02-18T00:31:36.377Z,5.06
2019-02-18T00:34:02.901Z,5.14
2019-02-18T00:36:29.394Z,5.10
2019-02-18T00:38:55.910Z,5.01
2019-02-18T00:41:22.410Z,5.02
2019-02-18T00:43:49.270Z,5.00
2019-02-18T00:46:15.844Z,4.95
2019-02-18T00:48:42.598Z,5.17
2019-02-18T00:51:09.485Z,5.20
2019-02-18T00:53:35.996Z,5.28
2019-02-18T00:56:02.571Z,5.23
2019-02-18T00:58:29.461Z,5.18
2019-02-18T01:00:56.035Z,5.17
2019-02-18T01:03:22.635Z,5.13
2019-02-18T01:05:49.176Z,5.02
2019-02-18T01:08:16.698Z,4.90
2019-02-18T01:10:43.284Z,4.74
2019-02-18T01:13:10.001Z,4.57
2019-02-18T01:15:36.545Z,4.50
2019-02-18T01:18:03.331Z,4.45
2019-02-18T01:20:30.131Z,4.37
2019-02-18T01:22:57.313Z,4.35
2019-02-18T01:25:24.113Z,4.31
2019-02-18T01:27:50.816Z,4.23
2019-02-18T01:30:17.615Z,4.18
2019-02-18T01:32:44.464Z,4.08
2019-02-18T01:35:11.489Z,3.97
2019-02-18T01:37:45.330Z,3.84
2019-02-18T01:40:09.282Z,3.68
2019-02-18T01:42:35.926Z,3.57
2019-02-18T01:45:03.636Z,3.50
2019-02-18T01:47:30.428Z,3.54
2019-02-18T01:49:56.973Z,3.59
2019-02-18T01:52:23.420Z,3.78
2019-02-18T01:54:50.232Z,3.97
2019-02-18T01:57:16.714Z,4.12
2019-02-18T01:59:44.576Z,4.27
2019-02-18T02:02:11.095Z,4.41
2019-02-18T02:04:37.616Z,4.41
2019-02-18T02:07:04.141Z,4.45
2019-02-18T02:09:30.671Z,4.45
2019-02-18T02:11:57.209Z,4.41
2019-02-18T02:14:23.687Z,4.37
2019-02-18T02:16:53.458Z,4.42
2019-02-18T02:19:19.962Z,4.49
2019-02-18T02:21:46.598Z,4.57
2019-02-18T02:24:13.100Z,4.54
2019-02-18T02:26:39.665Z,4.40
2019-02-18T02:29:06.226Z,4.31
2019-02-18T02:31:32.730Z,4.15
2019-02-18T02:34:01.324Z,4.15
2019-02-18T02:36:28.156Z,4.36
2019-02-18T02:38:54.915Z,4.21
2019-02-18T02:41:21.560Z,3.93
2019-02-18T02:43:48.136Z,3.77
2019-02-18T02:46:14.670Z,3.94
2019-02-18T02:48:41.186Z,3.98
2019-02-18T02:51:07.706Z,3.83
2019-02-18T02:53:34.190Z,3.73
2019-02-18T02:56:00.707Z,3.53
2019-02-18T02:58:31.334Z,3.40
2019-02-18T03:00:57.879Z,3.29
2019-02-18T03:03:24.609Z,3.38
2019-02-18T03:05:51.226Z,3.43
2019-02-18T03:08:20.607Z,3.49
2019-02-18T03:10:46.266Z,3.66
2019-02-18T03:13:12.914Z,3.74
2019-02-18T03:15:39.686Z,3.65
2019-02-18T03:18:06.239Z,3.62
2019-02-18T03:20:33.104Z,3.46
2019-02-18T03:22:59.604Z,3.45
2019-02-18T03:25:27.604Z,3.59
2019-02-18T03:28:32.143Z,3.64
2019-02-18T03:31:04.907Z,3.75
2019-02-18T03:33:40.838Z,3.77
2019-02-18T03:36:07.850Z,3.64
2019-02-18T03:38:34.356Z,3.51
2019-02-18T03:41:03.409Z,3.43
2019-02-18T03:43:30.276Z,3.38
2019-02-18T03:45:56.764Z,3.46
2019-02-18T03:48:23.562Z,3.42
2019-02-18T03:50:50.024Z,3.56
2019-02-18T03:53:16.640Z,3.57
2019-02-18T03:55:43.148Z,3.56
2019-02-18T03:58:09.651Z,3.41
2019-02-18T04:00:36.260Z,3.14
2019-02-18T04:03:02.793Z,2.90
2019-02-18T04:05:29.280Z,2.72
2019-02-18T04:07:55.875Z,2.49
2019-02-18T04:10:22.355Z,2.28
2019-02-18T04:12:49.196Z,2.04
2019-02-18T04:15:15.718Z,1.79
2019-02-18T04:17:42.471Z,1.62
2019-02-18T04:20:09.343Z,1.55
2019-02-18T04:22:35.841Z,1.56
2019-02-18T04:25:02.562Z,1.55
2019-02-18T04:27:29.104Z,1.51
2019-02-18T04:29:55.559Z,1.47
2019-02-18T04:32:22.088Z,1.61
2019-02-18T04:34:48.601Z,1.70
2019-02-18T04:37:15.074Z,1.82
2019-02-18T04:39:41.627Z,1.78
2019-02-18T04:42:08.110Z,1.79
2019-02-18T04:44:34.656Z,1.99
2019-02-18T04:47:01.190Z,2.32
2019-02-18T04:49:27.695Z,2.51
2019-02-18T04:51:54.255Z,2.77
2019-02-18T04:54:20.776Z,3.12
2019-02-18T04:56:47.287Z,3.44
2019-02-18T04:59:14.004Z,3.65
2019-02-18T05:01:40.517Z,3.82
2019-02-18T05:04:07.007Z,3.88
2019-02-18T05:06:33.488Z,3.68
2019-02-18T05:09:05.226Z,3.32
2019-02-18T05:11:28.403Z,3.01
2019-02-18T05:13:54.899Z,2.73
2019-02-18T05:16:21.405Z,2.46
2019-02-18T05:18:47.901Z,2.22
2019-02-18T05:21:14.407Z,1.91
2019-02-18T05:23:40.928Z,1.77
2019-02-18T05:26:07.449Z,1.66
2019-02-18T05:28:34.003Z,1.61
2019-02-18T05:31:03.065Z,1.56
2019-02-18T05:33:29.709Z,1.61
2019-02-18T05:35:56.534Z,1.60
2019-02-18T05:38:23.024Z,1.44
2019-02-18T05:40:50.643Z,1.32
2019-02-18T05:43:18.269Z,1.25
2019-02-18T05:45:44.741Z,1.40
2019-02-18T05:48:11.503Z,1.52
2019-02-18T05:50:38.327Z,1.58
2019-02-18T05:53:04.803Z,1.63
2019-02-18T05:55:31.306Z,1.56
2019-02-18T05:57:57.808Z,1.48
2019-02-18T06:00:24.362Z,1.33
2019-02-18T06:02:50.844Z,1.20
2019-02-18T06:05:19.406Z,1.11
2019-02-18T06:07:45.969Z,0.97
2019-02-18T06:10:13.918Z,0.89
2019-02-18T06:12:47.221Z,0.82
2019-02-18T06:15:14.036Z,0.84
2019-02-18T06:17:40.703Z,0.83
2019-02-18T06:20:07.507Z,0.80
2019-02-18T06:22:34.105Z,0.82
2019-02-18T06:25:01.294Z,0.91
2019-02-18T06:27:28.460Z,0.99
2019-02-18T06:29:55.173Z,1.20
2019-02-18T06:32:22.086Z,1.28
2019-02-18T06:34:49.180Z,1.59
2019-02-18T06:37:16.569Z,1.78
2019-02-18T06:39:43.461Z,1.91
2019-02-18T06:42:11.350Z,2.05
2019-02-18T06:45:01.017Z,2.08
2019-02-18T06:47:30.945Z,2.19
2019-02-18T06:49:57.545Z,2.51
2019-02-18T06:52:24.182Z,2.70
2019-02-18T06:54:50.713Z,2.78
2019-02-18T06:57:25.237Z,2.79
2019-02-18T06:59:54.634Z,2.79
2019-02-18T07:02:40.963Z,2.71
2019-02-18T07:05:16.405Z,2.48
2019-02-18T07:08:14.339Z,2.28
2019-02-18T07:10:55.335Z,2.40
2019-02-18T07:13:22.238Z,2.50
2019-02-18T07:15:48.866Z,2.81
2019-02-18T07:18:15.445Z,2.84
2019-02-18T07:20:42.027Z,2.72
2019-02-18T07:23:08.543Z,2.58
2019-02-18T07:25:35.403Z,2.48
2019-02-18T07:28:02.060Z,2.39
2019-02-18T07:30:28.746Z,2.35
2019-02-18T07:32:55.358Z,2.39
2019-02-18T07:35:21.927Z,2.42
2019-02-18T07:37:48.396Z,2.49
2019-02-18T07:40:14.936Z,2.55
2019-02-18T07:42:41.470Z,2.64
2019-02-18T07:45:08.406Z,2.78
2019-02-18T07:47:34.953Z,2.86
2019-02-18T07:50:01.498Z,3.00
2019-02-18T07:52:28.317Z,3.02
2019-02-18T07:54:55.922Z,3.10
2019-02-18T07:57:23.097Z,3.27
2019-02-18T07:59:50.490Z,3.43
2019-02-18T08:02:17.758Z,3.62
2019-02-18T08:04:52.666Z,3.82
2019-02-18T08:07:26.042Z,3.97
2019-02-18T08:10:00.288Z,4.17
2019-02-18T08:12:34.485Z,4.45
2019-02-18T08:15:06.801Z,4.83
2019-02-18T08:17:38.215Z,5.28
2019-02-18T08:20:08.972Z,5.72
2019-02-18T08:22:36.783Z,6.19
2019-02-18T08:25:03.767Z,6.73
2019-02-18T08:27:30.761Z,7.33
2019-02-18T08:29:58.850Z,7.82
2019-02-18T08:32:25.830Z,8.33
2019-02-18T08:34:52.478Z,8.86
2019-02-18T08:37:19.216Z,9.44
2019-02-18T08:39:46.366Z,9.99
2019-02-18T08:42:13.030Z,10.31
2019-02-18T08:44:39.844Z,10.67
2019-02-18T08:47:06.517Z,11.04
2019-02-18T08:49:33.180Z,11.51
2019-02-18T08:51:59.933Z,11.74
2019-02-18T08:54:26.503Z,12.02
2019-02-18T08:56:53.297Z,12.25
2019-02-18T08:59:19.987Z,12.44
2019-02-18T09:01:47.109Z,12.48
2019-02-18T09:04:13.937Z,12.79
2019-02-18T09:06:40.512Z,12.82
2019-02-18T09:09:07.298Z,12.91
2019-02-18T09:11:33.999Z,12.85
2019-02-18T09:14:00.671Z,12.97
2019-02-18T09:16:27.324Z,13.22
2019-02-18T09:18:54.707Z,13.29
2019-02-18T09:21:22.469Z,13.41
2019-02-18T09:24:00.101Z,13.49
2019-02-18T09:26:28.265Z,13.75
2019-02-18T09:28:55.129Z,14.02
2019-02-18T09:31:29.925Z,14.19
2019-02-18T09:33:56.665Z,14.38
2019-02-18T09:36:23.545Z,14.33
2019-02-18T09:38:50.375Z,14.26
2019-02-18T09:41:17.198Z,14.11
2019-02-18T09:43:44.082Z,14.10
2019-02-18T09:46:10.987Z,14.28
2019-02-18T09:48:38.735Z,14.29
2019-02-18T09:51:05.387Z,14.66
2019-02-18T09:53:31.984Z,14.39
2019-02-18T09:55:59.473Z,14.38
2019-02-18T09:58:26.812Z,14.45
2019-02-18T10:00:53.448Z,14.85
2019-02-18T10:03:31.025Z,15.42
2019-02-18T10:05:51.036Z,15.68
2019-02-18T10:08:17.792Z,15.89
2019-02-18T10:10:55.080Z,15.81
2019-02-18T10:13:13.109Z,15.78
2019-02-18T10:15:40.035Z,16.09
2019-02-18T10:18:06.709Z,16.06
2019-02-18T10:20:33.374Z,16.07
2019-02-18T10:23:00.106Z,16.38
2019-02-18T10:25:28.133Z,16.63
2019-02-18T10:27:55.165Z,16.65
2019-02-18T10:30:21.815Z,16.67
2019-02-18T10:32:48.533Z,16.49
2019-02-18T10:35:15.572Z,16.58
2019-02-18T10:37:43.670Z,16.53
2019-02-18T10:40:10.722Z,16.52
2019-02-18T10:42:37.272Z,16.79
2019-02-18T10:45:05.420Z,17.04
2019-02-18T10:47:32.168Z,17.31
2019-02-18T10:49:58.706Z,18.00
2019-02-18T10:52:25.799Z,18.00
2019-02-18T10:54:52.361Z,17.52
2019-02-18T10:57:19.260Z,17.48
2019-02-18T10:59:45.773Z,17.76
2019-02-18T11:02:12.573Z,17.28
2019-02-18T11:04:39.224Z,17.27
2019-02-18T11:07:06.157Z,17.06
2019-02-18T11:09:32.737Z,17.06
2019-02-18T11:11:59.320Z,17.26
2019-02-18T11:14:30.329Z,16.91
2019-02-18T11:16:56.840Z,17.16
2019-02-18T11:19:23.472Z,17.02
2019-02-18T11:21:50.361Z,16.90
2019-02-18T11:24:20.680Z,17.45
2019-02-18T11:26:46.860Z,17.45
2019-02-18T11:29:14.090Z,17.55
2019-02-18T11:31:40.761Z,17.32
2019-02-18T11:34:07.490Z,16.92
2019-02-18T11:36:34.475Z,17.13
2019-02-18T11:39:01.079Z,16.95
2019-02-18T11:41:27.855Z,17.64
2019-02-18T11:43:54.896Z,17.63
2019-02-18T11:46:21.491Z,17.93
2019-02-18T11:48:48.312Z,17.93
2019-02-18T11:51:15.376Z,17.73
2019-02-18T11:53:42.048Z,18.07
2019-02-18T11:56:09.557Z,17.90
2019-02-18T11:58:36.380Z,17.57
2019-02-18T12:01:03.262Z,17.93
2019-02-18T12:03:29.872Z,18.26
2019-02-18T12:05:56.420Z,18.74
2019-02-18T12:08:23.044Z,18.64
2019-02-18T12:10:49.816Z,18.62
2019-02-18T12:13:16.322Z,18.47
2019-02-18T12:15:42.879Z,18.39
2019-02-18T12:18:09.362Z,18.18
2019-02-18T12:20:36.661Z,18.71
2019-02-18T12:23:03.518Z,18.62
2019-02-18T12:25:30.485Z,18.67
2019-02-18T12:27:57.420Z,18.36
2019-02-18T12:30:24.222Z,18.42
2019-02-18T12:32:50.886Z,18.27
2019-02-18T12:35:17.799Z,18.63
2019-02-18T12:37:54.653Z,18.54
2019-02-18T12:40:12.890Z,18.35
2019-02-18T12:42:41.946Z,18.51
2019-02-18T12:45:08.485Z,18.48
2019-02-18T12:47:35.130Z,18.12
2019-02-18T12:50:01.719Z,18.17
2019-02-18T12:52:28.507Z,18.47
2019-02-18T12:54:55.086Z,18.51
2019-02-18T12:57:21.755Z,18.40
2019-02-18T12:59:48.469Z,18.29
2019-02-18T13:02:15.428Z,18.16
2019-02-18T13:04:42.291Z,17.99
2019-02-18T13:07:08.833Z,18.12
2019-02-18T13:09:35.312Z,18.17
2019-02-18T13:12:01.929Z,18.34
2019-02-18T13:14:28.469Z,18.41
2019-02-18T13:16:55.002Z,18.30
2019-02-18T13:19:21.939Z,18.16
2019-02-18T13:21:48.507Z,18.12
2019-02-18T13:24:15.303Z,18.25
2019-02-18T13:26:41.871Z,17.65
2019-02-18T13:29:08.396Z,17.66
2019-02-18T13:31:35.041Z,17.69
2019-02-18T13:34:01.590Z,17.31
2019-02-18T13:36:28.426Z,16.74
2019-02-18T13:38:55.000Z,16.80
2019-02-18T13:41:21.542Z,16.73
2019-02-18T13:43:48.411Z,16.72
2019-02-18T13:46:14.982Z,16.63
2019-02-18T13:48:41.521Z,16.21
2019-02-18T13:51:08.062Z,16.47
2019-02-18T13:53:34.614Z,16.22
2019-02-18T13:56:01.315Z,16.30
2019-02-18T13:58:28.176Z,16.22
2019-02-18T14:00:54.791Z,15.88
2019-02-18T14:03:21.739Z,15.62
2019-02-18T14:05:48.475Z,15.49
2019-02-18T14:08:15.032Z,15.56
2019-02-18T14:10:41.583Z,15.29
2019-02-18T14:13:08.157Z,15.47
2019-02-18T14:15:34.804Z,15.43
2019-02-18T14:18:01.366Z,15.35
2019-02-18T14:20:27.871Z,15.37
2019-02-18T14:22:54.843Z,15.31
2019-02-18T14:25:21.389Z,15.32
2019-02-18T14:27:47.996Z,15.37
2019-02-18T14:30:16.254Z,15.07
2019-02-18T14:32:46.802Z,15.12
2019-02-18T14:35:14.754Z,15.04
2019-02-18T14:37:41.386Z,15.03
2019-02-18T14:40:09.740Z,14.92
2019-02-18T14:42:36.886Z,14.87
2019-02-18T14:45:03.567Z,14.68
2019-02-18T14:47:30.292Z,14.54
2019-02-18T14:49:57.232Z,14.51
2019-02-18T14:52:24.274Z,14.40
2019-02-18T14:54:51.307Z,14.34
2019-02-18T14:57:18.696Z,14.21
2019-02-18T14:59:46.288Z,14.13
2019-02-18T15:02:16.275Z,14.06
2019-02-18T15:04:52.164Z,14.01
2019-02-18T15:07:24.642Z,13.97
2019-02-18T15:09:51.599Z,13.88
2019-02-18T15:12:18.549Z,13.78
2019-02-18T15:14:45.035Z,13.71
2019-02-18T15:17:11.989Z,13.66
2019-02-18T15:19:38.701Z,13.57
2019-02-18T15:22:05.246Z,13.45
2019-02-18T15:24:31.882Z,13.35
2019-02-18T15:26:58.599Z,13.28
2019-02-18T15:29:30.034Z,13.24
2019-02-18T15:31:56.955Z,13.14
2019-02-18T15:34:28.555Z,13.05
2019-02-18T15:36:55.285Z,12.98
2019-02-18T15:39:22.189Z,12.88
2019-02-18T15:41:48.757Z,12.79
2019-02-18T15:44:15.322Z,12.71
2019-02-18T15:46:42.310Z,12.65
2019-02-18T15:49:08.942Z,12.54
2019-02-18T15:51:35.599Z,12.36
2019-02-18T15:54:02.086Z,12.23
2019-02-18T15:56:28.705Z,12.11
2019-02-18T15:58:55.228Z,12.01
2019-02-18T16:01:22.098Z,11.90
2019-02-18T16:03:48.857Z,11.81
2019-02-18T16:06:15.612Z,11.71
2019-02-18T16:08:42.129Z,11.50
2019-02-18T16:11:08.983Z,11.15
2019-02-18T16:13:37.925Z,10.99
2019-02-18T16:16:04.608Z,11.00
2019-02-18T16:18:31.289Z,10.93
2019-02-18T16:20:58.092Z,10.74
2019-02-18T16:23:25.062Z,10.61
2019-02-18T16:25:51.688Z,10.42
2019-02-18T16:28:18.556Z,10.24
2019-02-18T16:30:45.023Z,10.07
2019-02-18T16:33:11.602Z,9.90
2019-02-18T16:35:38.792Z,9.80
2019-02-18T16:38:05.841Z,9.67
2019-02-18T16:40:32.885Z,9.57
2019-02-18T16:42:59.690Z,9.52
2019-02-18T16:45:27.081Z,9.54
2019-02-18T16:47:54.032Z,9.51
2019-02-18T16:50:29.866Z,9.54
2019-02-18T16:52:56.700Z,9.58
2019-02-18T16:55:33.111Z,9.56
2019-02-18T16:58:08.668Z,9.44
2019-02-18T17:00:38.713Z,9.48
2019-02-18T17:03:06.901Z,9.33
2019-02-18T17:05:37.370Z,9.31
2019-02-18T17:08:03.873Z,9.39
2019-02-18T17:10:39.402Z,9.57
2019-02-18T17:13:08.461Z,9.63
2019-02-18T17:15:44.751Z,9.50
2019-02-18T17:18:24.579Z,9.31
2019-02-18T17:21:01.685Z,9.17
2019-02-18T17:23:28.201Z,9.03
2019-02-18T17:25:54.816Z,8.98
2019-02-18T17:28:21.296Z,8.87
2019-02-18T17:30:47.777Z,8.80
2019-02-18T17:33:14.290Z,8.77
2019-02-18T17:35:41.152Z,8.76
2019-02-18T17:38:08.042Z,8.69
2019-02-18T17:40:34.523Z,8.60
2019-02-18T17:43:01.089Z,8.58
2019-02-18T17:45:27.589Z,8.54
2019-02-18T17:47:54.114Z,8.54
2019-02-18T17:50:20.885Z,8.52
2019-02-18T17:52:47.429Z,8.51
2019-02-18T17:55:14.318Z,8.54
2019-02-18T17:57:41.150Z,8.50
2019-02-18T18:00:14.296Z,8.50
2019-02-18T18:02:40.966Z,8.58
2019-02-18T18:05:10.384Z,8.59
2019-02-18T18:07:47.410Z,8.58
2019-02-18T18:10:14.426Z,8.53
2019-02-18T18:12:40.953Z,8.51
2019-02-18T18:15:08.510Z,8.44
2019-02-18T18:17:35.077Z,8.36
2019-02-18T18:20:01.921Z,8.23
2019-02-18T18:22:28.507Z,8.10
2019-02-18T18:24:55.036Z,8.03
2019-02-18T18:27:21.572Z,7.94
2019-02-18T18:29:50.144Z,7.93
2019-02-18T18:32:16.654Z,7.86
2019-02-18T18:34:43.189Z,7.83
2019-02-18T18:37:09.774Z,7.85
2019-02-18T18:39:38.603Z,7.85
2019-02-18T18:42:05.199Z,7.86
2019-02-18T18:44:31.877Z,7.87
2019-02-18T18:47:02.003Z,7.89
2019-02-18T18:49:28.601Z,7.84
2019-02-18T18:51:55.706Z,7.83
2019-02-18T18:54:22.278Z,7.88
2019-02-18T18:56:51.799Z,7.90
2019-02-18T18:59:21.339Z,7.98
2019-02-18T19:01:49.157Z,7.96
2019-02-18T19:04:16.028Z,8.02
2019-02-18T19:06:42.667Z,8.02
2019-02-18T19:09:09.528Z,8.06
2019-02-18T19:11:36.085Z,8.08
2019-02-18T19:14:02.666Z,8.22
2019-02-18T19:16:29.373Z,8.33
2019-02-18T19:18:55.914Z,8.42
2019-02-18T19:21:22.729Z,8.32
2019-02-18T19:23:49.391Z,8.39
2019-02-18T19:26:16.130Z,8.58
2019-02-18T19:28:44.472Z,8.65
2019-02-18T19:31:11.310Z,8.84
2019-02-18T19:33:38.280Z,8.87
2019-02-18T19:36:05.042Z,8.83
2019-02-18T19:38:32.243Z,8.63
2019-02-18T19:40:59.251Z,8.64
2019-02-18T19:43:25.744Z,8.69
2019-02-18T19:45:52.347Z,8.59
2019-02-18T19:48:18.885Z,8.57
2019-02-18T19:50:45.548Z,8.62
2019-02-18T19:53:12.077Z,8.68
2019-02-18T19:55:39.385Z,8.75
2019-02-18T19:58:06.115Z,8.88
2019-02-18T20:00:32.844Z,9.08
2019-02-18T20:03:00.799Z,9.23
2019-02-18T20:05:36.368Z,9.25
2019-02-18T20:08:09.507Z,9.18
2019-02-18T20:10:37.149Z,9.05
2019-02-18T20:13:04.239Z,8.96
2019-02-18T20:15:31.059Z,8.95
2019-02-18T20:17:58.940Z,8.92
2019-02-18T20:20:25.527Z,8.91
2019-02-18T20:22:52.259Z,8.94
2019-02-18T20:25:20.602Z,8.92
2019-02-18T20:27:48.103Z,8.86
2019-02-18T20:30:15.185Z,8.69
2019-02-18T20:32:41.737Z,8.60
2019-02-18T20:35:08.794Z,8.40
2019-02-18T20:37:35.676Z,8.30
2019-02-18T20:40:03.956Z,8.32
2019-02-18T20:42:33.611Z,8.46
2019-02-18T20:45:00.238Z,8.43
2019-02-18T20:47:26.746Z,8.47
2019-02-18T20:49:53.585Z,8.46
2019-02-18T20:52:20.145Z,8.41
2019-02-18T20:54:50.070Z,8.40
2019-02-18T20:57:18.933Z,8.33
2019-02-18T20:59:49.212Z,8.23
2019-02-18T21:02:16.183Z,8.10
2019-02-18T21:04:52.239Z,8.14
2019-02-18T21:07:20.262Z,8.14
2019-02-18T21:09:49.019Z,8.12
2019-02-18T21:12:19.858Z,8.15
2019-02-18T21:14:44.973Z,8.08
2019-02-18T21:17:11.502Z,8.00
2019-02-18T21:19:40.794Z,7.94
2019-02-18T21:22:07.444Z,7.83
2019-02-18T21:24:34.176Z,7.80
2019-02-18T21:27:01.225Z,7.78
2019-02-18T21:29:28.473Z,7.86
2019-02-18T21:31:56.497Z,7.95
2019-02-18T21:34:23.018Z,8.04
2019-02-18T21:36:51.476Z,8.09
2019-02-18T21:39:26.376Z,8.15
2019-02-18T21:41:52.885Z,8.15
2019-02-18T21:44:24.915Z,8.26
2019-02-18T21:46:47.858Z,8.38
2019-02-18T21:49:14.414Z,8.53
2019-02-18T21:51:40.953Z,8.75
2019-02-18T21:54:07.616Z,8.84
2019-02-18T21:56:34.140Z,8.78
2019-02-18T21:59:00.710Z,8.66
2019-02-18T22:01:27.260Z,8.63
2019-02-18T22:03:53.735Z,8.54
2019-02-18T22:06:20.649Z,8.49
2019-02-18T22:08:47.484Z,8.33
2019-02-18T22:11:14.012Z,8.10
2019-02-18T22:13:40.637Z,7.90
2019-02-18T22:16:07.172Z,7.76
2019-02-18T22:18:33.650Z,7.58
2019-02-18T22:21:00.272Z,7.55
2019-02-18T22:23:26.807Z,7.56
2019-02-18T22:25:53.284Z,7.45
2019-02-18T22:28:20.316Z,7.33
2019-02-18T22:30:47.162Z,7.28
2019-02-18T22:33:13.711Z,7.26
2019-02-18T22:35:40.231Z,7.14
2019-02-18T22:38:06.754Z,7.06
2019-02-18T22:40:33.239Z,6.90
2019-02-18T22:42:59.737Z,6.82
2019-02-18T22:45:26.260Z,6.79
2019-02-18T22:47:53.366Z,6.65
2019-02-18T22:50:19.809Z,6.48
2019-02-18T22:52:46.294Z,6.30
2019-02-18T22:55:13.175Z,6.12
2019-02-18T22:57:39.699Z,6.06
2019-02-18T23:00:13.769Z,5.90
2019-02-18T23:02:42.890Z,5.86
2019-02-18T23:05:09.864Z,5.84
2019-02-18T23:07:36.535Z,5.79
2019-02-18T23:10:03.442Z,6.05
2019-02-18T23:12:29.933Z,6.11
2019-02-18T23:14:57.223Z,6.20
2019-02-18T23:17:29.691Z,6.46
2019-02-18T23:19:56.233Z,6.47
2019-02-18T23:22:22.753Z,6.62
2019-02-18T23:24:49.618Z,6.57
2019-02-18T23:27:16.111Z,6.70
2019-02-18T23:29:42.895Z,6.71
2019-02-18T23:32:09.362Z,6.75
2019-02-18T23:34:35.900Z,6.69
2019-02-18T23:37:02.393Z,6.62
2019-02-18T23:39:28.860Z,7.00
2019-02-18T23:41:55.406Z,7.08
2019-02-18T23:44:21.923Z,6.97
2019-02-18T23:46:48.665Z,6.91
2019-02-18T23:49:15.200Z,6.92
2019-02-18T23:51:41.780Z,6.93
2019-02-18T23:54:08.287Z,7.15
2019-02-18T23:56:34.784Z,7.09
2019-02-18T23:59:01.512Z,7.08
